78659 ULLP-ULLA
Flight info
| Callsign | 78659 |
|---|---|
| Flight time | N/A |
| Altitude | 7000 |
| Route | ULLP GRAMU NATAB SEGON ULLA |
| Aircraft | IL76/H-VGDW/C |
Departure
| Time | 2026-04-16 12:27 |
|---|---|
| Airport | Pushkin Airport (ULLP) |
Arrival
| Time | N/A |
|---|---|
| Airport | ULLA |
| Time | Latitude | Longitude | Altitude | Speed | Heading |
|---|---|---|---|---|---|
| 2026-04-16 12:20 | 59.68988 | 30.34006 | 262 ft | 0 kts | 218° |
| 2026-04-16 12:21 | 59.68982 | 30.33998 | 263 ft | 2 kts | 208° |
| 2026-04-16 12:21 | 59.68968 | 30.33991 | 263 ft | 0 kts | 181° |
| 2026-04-16 12:22 | 59.68950 | 30.34008 | 263 ft | 6 kts | 139° |
| 2026-04-16 12:22 | 59.68922 | 30.34064 | 263 ft | 7 kts | 128° |
| 2026-04-16 12:22 | 59.68883 | 30.34187 | 263 ft | 12 kts | 103° |
| 2026-04-16 12:22 | 59.68911 | 30.34351 | 263 ft | 13 kts | 39° |
| 2026-04-16 12:23 | 59.69003 | 30.34482 | 263 ft | 18 kts | 34° |
| 2026-04-16 12:23 | 59.69102 | 30.34615 | 263 ft | 17 kts | 34° |
| 2026-04-16 12:23 | 59.69195 | 30.34741 | 263 ft | 15 kts | 34° |
| 2026-04-16 12:23 | 59.69247 | 30.34812 | 263 ft | 11 kts | 32° |
| 2026-04-16 12:24 | 59.69298 | 30.34868 | 263 ft | 7 kts | 25° |
| 2026-04-16 12:24 | 59.69342 | 30.34896 | 263 ft | 4 kts | 18° |
| 2026-04-16 12:24 | 59.69371 | 30.34938 | 263 ft | 4 kts | 77° |
| 2026-04-16 12:24 | 59.69353 | 30.34969 | 263 ft | 4 kts | 186° |
| 2026-04-16 12:25 | 59.69317 | 30.34910 | 263 ft | 6 kts | 217° |
| 2026-04-16 12:25 | 59.69310 | 30.34899 | 263 ft | 0 kts | 216° |
| 2026-04-16 12:25 | 59.69307 | 30.34896 | 263 ft | 1 kts | 216° |
| 2026-04-16 12:26 | 59.69301 | 30.34887 | 263 ft | 0 kts | 216° |
| 2026-04-16 12:26 | 59.69249 | 30.34811 | 263 ft | 37 kts | 216° |
| 2026-04-16 12:26 | 59.68815 | 30.34213 | 263 ft | 113 kts | 214° |
| 2026-04-16 12:26 | 59.68009 | 30.33107 | 393 ft | 159 kts | 214° |
| 2026-04-16 12:27 | 59.67095 | 30.31856 | 893 ft | 171 kts | 214° |
| 2026-04-16 12:27 | 59.66031 | 30.30437 | 1337 ft | 194 kts | 212° |
| 2026-04-16 12:27 | 59.64778 | 30.29663 | 1862 ft | 193 kts | 178° |
| 2026-04-16 12:27 | 59.63529 | 30.30669 | 2170 ft | 203 kts | 140° |
| 2026-04-16 12:28 | 59.62509 | 30.32487 | 2629 ft | 193 kts | 136° |
| 2026-04-16 12:28 | 59.61567 | 30.34341 | 2956 ft | 198 kts | 133° |
| 2026-04-16 12:28 | 59.60619 | 30.36399 | 3547 ft | 207 kts | 130° |
| 2026-04-16 12:28 | 59.59658 | 30.38664 | 3964 ft | 227 kts | 129° |
| 2026-04-16 12:29 | 59.58667 | 30.41241 | 4503 ft | 248 kts | 119° |
| 2026-04-16 12:29 | 59.58209 | 30.44581 | 5352 ft | 263 kts | 86° |
| 2026-04-16 12:29 | 59.58813 | 30.48007 | 6104 ft | 280 kts | 58° |
| 2026-04-16 12:29 | 59.60056 | 30.51061 | 6910 ft | 296 kts | 41° |
| 2026-04-16 12:30 | 59.61807 | 30.53223 | 7792 ft | 308 kts | 20° |
| 2026-04-16 12:30 | 59.63958 | 30.54359 | 8296 ft | 332 kts | 13° |
| 2026-04-16 12:30 | 59.66312 | 30.55480 | 8556 ft | 356 kts | 13° |
| 2026-04-16 12:30 | 59.68729 | 30.56575 | 8888 ft | 356 kts | 12° |
| 2026-04-16 12:31 | 59.71131 | 30.57603 | 8893 ft | 352 kts | 11° |
| 2026-04-16 12:31 | 59.73542 | 30.58564 | 8721 ft | 354 kts | 10° |
| 2026-04-16 12:31 | 59.75967 | 30.59456 | 8509 ft | 353 kts | 9° |
| 2026-04-16 12:31 | 59.78362 | 30.60256 | 8325 ft | 350 kts | 8° |
| 2026-04-16 12:32 | 59.80741 | 30.60964 | 8174 ft | 346 kts | 7° |
| 2026-04-16 12:32 | 59.83138 | 30.61585 | 7969 ft | 345 kts | 6° |
| 2026-04-16 12:32 | 59.85523 | 30.62131 | 7701 ft | 345 kts | 5° |
| 2026-04-16 12:32 | 59.87849 | 30.62063 | 7463 ft | 331 kts | 349° |
| 2026-04-16 12:33 | 59.89984 | 30.60567 | 6852 ft | 327 kts | 329° |
| 2026-04-16 12:33 | 59.91705 | 30.57734 | 6407 ft | 316 kts | 313° |
| 2026-04-16 12:33 | 59.93178 | 30.54599 | 5913 ft | 310 kts | 312° |
| 2026-04-16 12:33 | 59.94620 | 30.51369 | 5221 ft | 311 kts | 310° |
| 2026-04-16 12:34 | 59.96006 | 30.48094 | 4588 ft | 310 kts | 309° |
| 2026-04-16 12:34 | 59.97327 | 30.44789 | 4122 ft | 303 kts | 307° |
| 2026-04-16 12:34 | 59.98574 | 30.41472 | 3669 ft | 296 kts | 306° |
| 2026-04-16 12:34 | 59.99744 | 30.38141 | 3307 ft | 287 kts | 303° |
| 2026-04-16 12:35 | 60.00834 | 30.34856 | 2929 ft | 280 kts | 303° |
| 2026-04-16 12:35 | 60.01853 | 30.31788 | 2401 ft | 248 kts | 303° |
| 2026-04-16 12:35 | 60.02850 | 30.29213 | 2382 ft | 231 kts | 315° |
| 2026-04-16 12:35 | 60.04129 | 30.27295 | 2197 ft | 227 kts | 331° |
| 2026-04-16 12:36 | 60.05572 | 30.26082 | 1971 ft | 223 kts | 341° |
| 2026-04-16 12:36 | 60.07046 | 30.25229 | 1674 ft | 220 kts | 344° |
| 2026-04-16 12:36 | 60.08514 | 30.24429 | 1374 ft | 219 kts | 345° |
| 2026-04-16 12:36 | 60.09951 | 30.23661 | 1278 ft | 208 kts | 345° |
| 2026-04-16 12:37 | 60.11323 | 30.22991 | 1203 ft | 196 kts | 351° |
| 2026-04-16 12:37 | 60.12624 | 30.22987 | 1198 ft | 182 kts | 12° |
| 2026-04-16 12:37 | 60.13726 | 30.24060 | 1061 ft | 172 kts | 44° |
| 2026-04-16 12:37 | 60.14313 | 30.25987 | 954 ft | 161 kts | 71° |
| 2026-04-16 12:38 | 60.14609 | 30.28174 | 952 ft | 169 kts | 77° |
| 2026-04-16 12:38 | 60.14854 | 30.30648 | 1085 ft | 188 kts | 79° |
| 2026-04-16 12:38 | 60.15074 | 30.33253 | 1238 ft | 189 kts | 81° |
| 2026-04-16 12:38 | 60.15255 | 30.35818 | 1397 ft | 177 kts | 82° |
| 2026-04-16 12:39 | 60.15385 | 30.38147 | 1465 ft | 162 kts | 84° |
| 2026-04-16 12:39 | 60.15190 | 30.40271 | 1443 ft | 153 kts | 122° |
| 2026-04-16 12:39 | 60.14319 | 30.41513 | 1239 ft | 165 kts | 165° |
| 2026-04-16 12:39 | 60.13168 | 30.41676 | 1153 ft | 163 kts | 176° |
| 2026-04-16 12:40 | 60.12108 | 30.41775 | 1039 ft | 141 kts | 178° |
| 2026-04-16 12:40 | 60.11133 | 30.41786 | 873 ft | 143 kts | 180° |
| 2026-04-16 12:40 | 60.10154 | 30.41560 | 866 ft | 143 kts | 199° |
| 2026-04-16 12:40 | 60.09421 | 30.40230 | 824 ft | 146 kts | 246° |
| 2026-04-16 12:41 | 60.09302 | 30.38239 | 845 ft | 142 kts | 268° |
| 2026-04-16 12:41 | 60.09219 | 30.36346 | 822 ft | 136 kts | 264° |
| 2026-04-16 12:41 | 60.09141 | 30.34368 | 916 ft | 141 kts | 265° |
| 2026-04-16 12:41 | 60.09078 | 30.32440 | 873 ft | 137 kts | 265° |
| 2026-04-16 12:42 | 60.09022 | 30.30532 | 782 ft | 138 kts | 267° |
| 2026-04-16 12:42 | 60.08976 | 30.28599 | 641 ft | 140 kts | 266° |
| 2026-04-16 12:42 | 60.08935 | 30.26620 | 550 ft | 142 kts | 266° |
| 2026-04-16 12:42 | 60.08873 | 30.24661 | 453 ft | 139 kts | 267° |
| 2026-04-16 12:43 | 60.08824 | 30.22775 | 262 ft | 138 kts | 266° |
| 2026-04-16 12:43 | 60.08773 | 30.20875 | 112 ft | 133 kts | 265° |
| 2026-04-16 12:43 | 60.08732 | 30.19300 | 91 ft | 88 kts | 266° |
| 2026-04-16 12:43 | 60.08714 | 30.18518 | 91 ft | 39 kts | 266° |
| 2026-04-16 12:44 | 60.08699 | 30.18077 | 91 ft | 23 kts | 266° |
| 2026-04-16 12:44 | 60.08740 | 30.17923 | 91 ft | 10 kts | 355° |
| 2026-04-16 12:44 | 60.08789 | 30.17945 | 91 ft | 5 kts | 52° |
| 2026-04-16 12:44 | 60.08804 | 30.18075 | 91 ft | 16 kts | 84° |
| 2026-04-16 12:45 | 60.08812 | 30.18303 | 91 ft | 16 kts | 86° |
| 2026-04-16 12:45 | 60.08820 | 30.18558 | 91 ft | 21 kts | 85° |
| 2026-04-16 12:45 | 60.08833 | 30.18892 | 91 ft | 27 kts | 85° |
| 2026-04-16 12:45 | 60.08847 | 30.19256 | 91 ft | 24 kts | 85° |
| 2026-04-16 12:46 | 60.08859 | 30.19566 | 91 ft | 21 kts | 85° |
| 2026-04-16 12:46 | 60.08866 | 30.19800 | 91 ft | 7 kts | 88° |
| 2026-04-16 12:46 | 60.08882 | 30.19855 | 91 ft | 2 kts | 28° |
| 2026-04-16 12:46 | 60.08895 | 30.19861 | 91 ft | 4 kts | 5° |
| 2026-04-16 12:47 | 60.08931 | 30.19909 | 91 ft | 8 kts | 66° |
| 2026-04-16 12:47 | 60.08957 | 30.19994 | 91 ft | 7 kts | 14° |
| 2026-04-16 12:47 | 60.08995 | 30.19953 | 91 ft | 4 kts | 307° |
| 2026-04-16 12:47 | 60.08999 | 30.19939 | 91 ft | 0 kts | 291° |